Alphen aan den Rijn, Netherlands
Current Conditions -  °F | °C
As of 1:55 AM on Sunday 26 Oct 2014 (Local Time) from EHAM Reporting Station
Few Clouds Few Clouds  
Wind Chill: 50°   Ceiling: Unl
Heat Index: 50°   Visibility: 6mi
Dew Point: 48°   Wind: 8mph
Humidity: 94%   Direction: 200°SSW
Pressure: 30.15"   Gusts: NA
Location:  52.13°N, 4.66°E
Report Text: EHAM 252355Z 20007KT 9999 FEW040 10/09 Q1021 NOSIG
Loading
Personal Weather Stations






























Interactive Weather Map
Tropical Storm Tracking
New forecast layout! Learn more

10-Day Weather Forecast

Advertisements
Track Severe Weather on mobile